Tuesday, October 16, 2018, 10:15 AM GMT
Back to Local

CXMY, Malay Falls , N. S.

Location: , , Canada Lat: 44.983
Local Time: 10:15 AM GMT (10:15 GMT) Lon: -62.483
Time Zone: GMT Elev: 131 ft

Show me the last for .
Show Coded

Time T Td Feel RH Dir Speed Gust Alt SLP Vis Weather Sky Remarks
2018-10-16 10:00 62 61 - 98 - - - - - 0 1-hr Precip Total: 0.05"
2018-10-16 09:00 62 62 - 99 - - - - - 0 1-hr Precip Total: 0.09"
2018-10-16 08:00 61 60 - 98 - - - - - 0 1-hr Precip Total: 0.28"
2018-10-16 07:00 59 58 - 98 - - - - - 0 1-hr Precip Total: 0.32"
2018-10-16 06:00 57 57 - 98 - - - - - 0 1-hr Precip Total: 0.34"
2018-10-16 05:00 56 55 - 97 - - - - - 0 1-hr Precip Total: 0.14"
2018-10-16 04:00 56 55 - 96 - - - - - 0 None
2018-10-16 03:00 55 54 - 95 - - - - - 0 None
2018-10-16 02:00 55 53 - 92 - - - - - 0 None
2018-10-16 01:00 55 49 - 81 - - - - - 0 None
2018-10-16 00:00 54 46 - 73 - - - - - 0 None
2018-10-15 23:00 54 46 - 74 - - - - - 0 None
2018-10-15 22:00 52 46 - 78 - - - - - 0 None
2018-10-15 21:00 53 45 - 72 - - - - - 0 None
2018-10-15 20:00 55 46 - 71 - - - - - 0 None
2018-10-15 19:00 56 44 - 64 - - - - - 0 None
2018-10-15 18:00 57 42 - 57 - - - - - 0 None
2018-10-15 17:00 58 38 - 45 - - - - - 0 None
2018-10-15 16:00 55 39 - 55 - - - - - 0 None
2018-10-15 15:00 56 40 - 54 - - - - - 0 None
2018-10-15 14:00 52 39 - 62 - - - - - 0 None
2018-10-15 13:00 46 41 - 81 - - - - - 0 None
2018-10-15 12:00 35 35 - 100 - - - - - 0 None
2018-10-15 11:00 28 28 - 101 - - - - - 0 None

Support USWX by starting your Amazon purchase here.